createdAt,value
2022-11-15T00:00:37.149Z,25.95
2022-11-15T00:03:25.162Z,26.17
2022-11-15T00:06:09.166Z,25.10
2022-11-15T00:08:57.176Z,26.15
2022-11-15T00:11:37.153Z,27.52
2022-11-15T00:14:18.713Z,27.05
2022-11-15T00:17:00.154Z,27.92
2022-11-15T00:19:48.192Z,28.88
2022-11-15T00:22:29.173Z,28.70
2022-11-15T00:25:17.151Z,29.17
2022-11-15T00:27:52.727Z,26.20
2022-11-15T00:30:40.170Z,29.10
2022-11-15T00:33:34.461Z,27.67
2022-11-15T00:36:15.196Z,27.80
2022-11-15T00:39:03.167Z,29.00
2022-11-15T00:41:37.123Z,27.40
2022-11-15T00:44:25.166Z,27.23
2022-11-15T00:46:59.129Z,31.48
2022-11-15T00:49:47.168Z,20.70
2022-11-15T00:52:21.144Z,27.17
2022-11-15T00:55:09.180Z,28.70
2022-11-15T00:57:43.296Z,27.17
2022-11-15T01:00:31.222Z,29.17
2022-11-15T01:03:12.145Z,27.98
2022-11-15T01:06:00.177Z,29.65
2022-11-15T01:08:40.236Z,30.90
2022-11-15T01:11:21.273Z,30.35
2022-11-15T01:14:09.206Z,30.83
2022-11-15T01:16:43.307Z,30.50
2022-11-15T01:19:30.166Z,33.10
2022-11-15T01:22:11.154Z,31.70
2022-11-15T01:25:06.207Z,31.58
2022-11-15T01:27:54.175Z,30.42
2022-11-15T01:30:28.245Z,34.15
2022-11-15T01:33:15.176Z,32.05
2022-11-15T01:35:49.236Z,27.00
2022-11-15T01:38:36.174Z,28.02
2022-11-15T01:41:10.268Z,28.05
2022-11-15T01:44:00.183Z,24.48
2022-11-15T01:46:44.179Z,29.52
2022-11-15T01:49:39.157Z,27.40
2022-11-15T01:52:28.174Z,29.98
2022-11-15T01:55:29.176Z,29.73
2022-11-15T01:58:23.168Z,26.85
2022-11-15T02:01:11.211Z,22.00
2022-11-15T02:03:48.270Z,27.58
2022-11-15T02:06:35.161Z,29.65
2022-11-15T02:09:09.251Z,30.27
2022-11-15T02:11:58.189Z,30.02
2022-11-15T02:14:35.261Z,31.13
2022-11-15T02:17:41.195Z,31.60
2022-11-15T02:20:30.770Z,35.58
2022-11-15T02:23:17.193Z,33.60
2022-11-15T02:25:57.311Z,35.80
2022-11-15T02:28:53.221Z,36.00
2022-11-15T02:31:52.270Z,37.42
2022-11-15T02:34:59.171Z,37.63
2022-11-15T02:37:47.201Z,35.45
2022-11-15T02:40:21.097Z,36.17
2022-11-15T02:43:28.360Z,35.13
2022-11-15T02:46:13.192Z,34.60
2022-11-15T02:48:54.299Z,36.55
2022-11-15T02:51:34.193Z,35.47
2022-11-15T02:54:15.297Z,33.33
2022-11-15T02:56:56.200Z,34.78
2022-11-15T02:59:53.162Z,33.28
2022-11-15T03:02:37.186Z,34.92
2022-11-15T03:05:31.188Z,33.92
2022-11-15T03:08:11.013Z,36.45
2022-11-15T03:11:14.184Z,35.05
2022-11-15T03:13:51.012Z,34.08
2022-11-15T03:16:49.188Z,34.30
2022-11-15T03:19:23.153Z,33.83
2022-11-15T03:22:12.204Z,36.08
2022-11-15T03:24:51.186Z,34.05
2022-11-15T03:27:43.172Z,32.92
2022-11-15T03:30:17.636Z,34.85
2022-11-15T03:33:13.197Z,30.20
2022-11-15T03:35:47.792Z,30.50
2022-11-15T03:38:37.293Z,32.45
2022-11-15T03:44:20.198Z,26.17
2022-11-15T03:47:02.411Z,35.00
2022-11-15T03:49:53.215Z,31.05
2022-11-15T03:52:27.259Z,32.42
2022-11-15T03:55:16.194Z,32.70
2022-11-15T03:58:13.190Z,31.73
2022-11-15T04:01:01.256Z,31.13
2022-11-15T04:03:35.364Z,35.70
2022-11-15T04:06:23.178Z,33.75
2022-11-15T04:09:04.206Z,33.55
2022-11-15T04:11:58.204Z,35.55
2022-11-15T04:15:05.202Z,36.53
2022-11-15T04:17:46.191Z,33.08
2022-11-15T04:21:03.206Z,31.13
2022-11-15T04:24:09.224Z,33.97
2022-11-15T04:26:50.680Z,32.55
2022-11-15T04:29:43.203Z,33.80
2022-11-15T04:32:24.265Z,32.25
2022-11-15T04:35:04.190Z,32.47
2022-11-15T04:37:49.295Z,31.27
2022-11-15T04:40:30.216Z,33.13
2022-11-15T04:43:19.213Z,32.25
2022-11-15T04:45:53.411Z,32.75
2022-11-15T04:48:47.203Z,35.63
2022-11-15T04:51:41.176Z,32.55
2022-11-15T04:54:28.215Z,32.67
2022-11-15T04:57:09.217Z,34.53
2022-11-15T04:59:56.227Z,32.42
2022-11-15T05:02:50.235Z,33.38
2022-11-15T05:05:38.217Z,32.35
2022-11-15T05:08:12.294Z,30.77
2022-11-15T05:10:59.216Z,30.52
2022-11-15T05:13:33.547Z,29.65
2022-11-15T05:16:21.194Z,25.98
2022-11-15T05:18:55.283Z,29.05
2022-11-15T05:21:43.198Z,26.92
2022-11-15T05:24:18.297Z,28.95
2022-11-15T05:27:05.212Z,29.27
2022-11-15T05:29:46.210Z,27.80
2022-11-15T05:32:40.212Z,26.90
2022-11-15T05:35:42.196Z,26.88
2022-11-15T05:38:17.302Z,27.05
2022-11-15T05:41:04.224Z,28.45
2022-11-15T05:43:53.195Z,27.05
2022-11-15T05:46:27.398Z,29.52
2022-11-15T05:49:15.219Z,31.42
2022-11-15T05:51:57.219Z,30.27
2022-11-15T05:54:46.212Z,31.83
2022-11-15T05:57:20.159Z,30.35
2022-11-15T06:00:09.220Z,27.52
2022-11-15T06:02:43.433Z,25.77
2022-11-15T06:05:31.232Z,24.75
2022-11-15T06:08:12.194Z,24.55
2022-11-15T06:10:53.314Z,25.98
2022-11-15T06:13:33.547Z,24.90
2022-11-15T06:16:14.308Z,25.38
2022-11-15T06:18:54.258Z,28.08
2022-11-15T06:21:35.338Z,26.33
2022-11-15T06:24:23.215Z,29.65
2022-11-15T06:27:04.362Z,30.58
2022-11-15T06:29:44.229Z,29.52
2022-11-15T06:32:25.332Z,32.72
2022-11-15T06:35:05.246Z,28.13
2022-11-15T06:37:46.310Z,26.30
2022-11-15T06:40:27.235Z,26.70
2022-11-15T06:43:15.251Z,23.75
2022-11-15T06:45:49.194Z,27.88
2022-11-15T06:48:37.238Z,22.60
2022-11-15T06:51:11.315Z,21.83
2022-11-15T06:53:59.236Z,21.75
2022-11-15T06:56:33.196Z,22.75
2022-11-15T06:59:21.225Z,24.25
2022-11-15T07:01:55.157Z,23.60
2022-11-15T07:04:43.261Z,25.05
2022-11-15T07:07:17.296Z,23.38
2022-11-15T07:10:05.222Z,24.33
2022-11-15T07:12:39.204Z,23.27
2022-11-15T07:15:27.247Z,23.15
2022-11-15T07:18:10.239Z,22.17
2022-11-15T07:20:51.295Z,23.02
2022-11-15T07:23:31.474Z,22.33
2022-11-15T07:26:19.227Z,24.30
2022-11-15T07:28:53.239Z,23.95
2022-11-15T07:31:41.246Z,22.05
2022-11-15T07:34:21.238Z,21.88
2022-11-15T07:37:02.374Z,22.98
2022-11-15T07:39:43.235Z,21.77
2022-11-15T07:42:42.790Z,20.98
2022-11-15T07:45:23.237Z,20.05
2022-11-15T07:48:05.323Z,20.23
2022-11-15T07:50:49.241Z,20.17
2022-11-15T07:53:30.600Z,19.20
2022-11-15T07:56:11.271Z,20.60
2022-11-15T07:59:00.222Z,18.17
2022-11-15T08:01:47.363Z,18.52
2022-11-15T08:04:28.234Z,19.45
2022-11-15T08:07:22.312Z,19.00
2022-11-15T08:10:11.250Z,19.02
2022-11-15T08:12:52.311Z,19.55
2022-11-15T08:15:47.217Z,17.08
2022-11-15T08:18:41.250Z,17.83
2022-11-15T08:21:29.277Z,19.75
2022-11-15T08:24:10.240Z,20.15
2022-11-15T08:26:57.274Z,18.40
2022-11-15T08:29:31.354Z,20.50
2022-11-15T08:32:19.238Z,19.23
2022-11-15T08:35:00.234Z,18.60
2022-11-15T08:37:54.233Z,19.88
2022-11-15T08:40:41.257Z,17.83
2022-11-15T08:43:15.320Z,19.73
2022-11-15T08:46:06.238Z,17.95
2022-11-15T08:48:47.336Z,17.38
2022-11-15T08:51:28.239Z,15.98
2022-11-15T08:54:09.338Z,16.10
2022-11-15T08:56:50.270Z,14.90
2022-11-15T08:59:31.321Z,17.48
2022-11-15T09:02:12.236Z,17.23
2022-11-15T09:04:53.323Z,17.00
2022-11-15T09:07:33.377Z,17.73
2022-11-15T09:10:14.344Z,17.33
2022-11-15T09:12:56.256Z,16.48
2022-11-15T09:15:37.357Z,16.98
2022-11-15T09:18:18.259Z,18.88
2022-11-15T09:20:59.408Z,17.00
2022-11-15T09:23:39.242Z,15.50
2022-11-15T09:26:21.332Z,14.32
2022-11-15T09:29:01.243Z,16.33
2022-11-15T09:31:42.328Z,11.27
2022-11-15T09:34:23.290Z,14.27
2022-11-15T09:37:11.238Z,15.25
2022-11-15T09:39:51.244Z,18.85
2022-11-15T09:42:38.331Z,17.02
2022-11-15T09:45:23.268Z,15.00
2022-11-15T09:48:33.756Z,15.38
2022-11-15T09:51:24.257Z,15.18
2022-11-15T09:54:51.064Z,16.38
2022-11-15T09:57:49.251Z,15.32
2022-11-15T10:03:37.242Z,16.38
2022-11-15T10:06:13.341Z,16.55
2022-11-15T10:09:08.269Z,14.82
2022-11-15T10:11:44.334Z,14.60
2022-11-15T10:14:34.279Z,16.08
2022-11-15T10:20:11.252Z,13.38
2022-11-15T10:22:52.430Z,14.20
2022-11-15T10:25:41.260Z,13.73
2022-11-15T10:28:35.566Z,14.15
2022-11-15T10:31:30.264Z,14.25
2022-11-15T10:34:25.933Z,23.17
2022-11-15T10:37:09.271Z,16.25
2022-11-15T10:39:50.323Z,16.05
2022-11-15T10:42:35.239Z,16.38
2022-11-15T10:45:33.383Z,14.38
2022-11-15T10:48:20.255Z,14.82
2022-11-15T10:51:02.348Z,14.23
2022-11-15T10:53:50.239Z,13.13
2022-11-15T10:56:33.331Z,14.52
2022-11-15T10:59:26.271Z,23.03
2022-11-15T11:02:00.333Z,18.55
2022-11-15T11:04:57.281Z,15.63
2022-11-15T11:07:39.359Z,22.92
2022-11-15T11:13:33.394Z,16.70
2022-11-15T11:16:46.286Z,16.25
2022-11-15T11:19:46.274Z,14.55
2022-11-15T11:23:11.250Z,21.95
2022-11-15T11:25:54.344Z,15.57
2022-11-15T11:28:48.264Z,14.80
2022-11-15T11:31:32.338Z,16.73
2022-11-15T11:34:38.253Z,15.70
2022-11-15T11:37:28.540Z,16.02
2022-11-15T11:40:37.252Z,15.50
2022-11-15T11:43:30.280Z,18.88
2022-11-15T11:46:11.199Z,18.77
2022-11-15T11:49:02.245Z,17.75
2022-11-15T11:54:27.252Z,16.92
2022-11-15T11:57:17.264Z,15.85
2022-11-15T12:00:02.875Z,17.85
2022-11-15T12:02:52.440Z,16.25
2022-11-15T12:05:46.612Z,30.85
2022-11-15T12:08:36.336Z,26.63
2022-11-15T12:14:02.451Z,17.75
2022-11-15T12:16:42.297Z,15.32
2022-11-15T12:19:30.283Z,17.35
2022-11-15T12:22:15.039Z,15.30
2022-11-15T12:25:05.275Z,16.33
2022-11-15T12:27:44.931Z,16.58
2022-11-15T12:30:33.265Z,17.67
2022-11-15T12:33:07.236Z,15.77
2022-11-15T12:35:57.281Z,16.27
2022-11-15T12:38:49.779Z,17.10
2022-11-15T12:41:44.292Z,16.92
2022-11-15T12:44:45.266Z,18.15
2022-11-15T12:47:33.348Z,18.77
2022-11-15T12:50:21.275Z,16.00
2022-11-15T12:53:14.363Z,17.85
2022-11-15T12:56:20.298Z,17.50
2022-11-15T12:59:07.271Z,19.38
2022-11-15T13:02:01.303Z,17.38
2022-11-15T13:07:56.288Z,17.38
2022-11-15T13:10:49.279Z,18.05
2022-11-15T13:13:52.297Z,17.73
2022-11-15T13:16:28.350Z,19.10
2022-11-15T13:19:19.273Z,18.92
2022-11-15T13:22:15.910Z,20.23
2022-11-15T13:25:03.288Z,22.92
2022-11-15T13:27:37.376Z,24.70
2022-11-15T13:30:29.295Z,25.45
2022-11-15T13:33:03.359Z,20.98
2022-11-15T13:35:57.300Z,18.35
2022-11-15T13:38:35.617Z,20.15
2022-11-15T13:41:27.305Z,19.63
2022-11-15T13:44:02.439Z,27.00
2022-11-15T13:46:50.479Z,34.13
2022-11-15T13:49:24.374Z,23.05
2022-11-15T13:52:15.305Z,23.63
2022-11-15T13:55:04.658Z,25.27
2022-11-15T13:57:58.274Z,30.33
2022-11-15T14:00:32.376Z,24.10
2022-11-15T14:03:37.289Z,23.63
2022-11-15T14:06:15.877Z,25.90
2022-11-15T14:09:07.354Z,19.60
2022-11-15T14:11:41.388Z,20.83
2022-11-15T14:14:34.347Z,19.15
2022-11-15T14:17:08.436Z,17.25
2022-11-15T14:19:55.317Z,17.38
2022-11-15T14:22:33.399Z,17.25
2022-11-15T14:25:29.299Z,17.33
2022-11-15T14:28:17.508Z,18.35
2022-11-15T14:31:06.305Z,16.63
2022-11-15T14:33:50.302Z,16.90
2022-11-15T14:36:44.286Z,16.55
2022-11-15T14:39:32.296Z,17.35
2022-11-15T14:42:13.298Z,15.77
2022-11-15T14:45:01.318Z,15.50
2022-11-15T14:47:35.382Z,14.90
2022-11-15T14:50:24.290Z,16.00
2022-11-15T14:53:05.430Z,17.05
2022-11-15T14:55:46.366Z,17.08
2022-11-15T14:58:40.286Z,16.73
2022-11-15T15:01:29.323Z,17.17
2022-11-15T15:04:10.308Z,16.92
2022-11-15T15:07:04.381Z,17.27
2022-11-15T15:09:52.313Z,20.80
2022-11-15T15:12:28.420Z,21.23
2022-11-15T15:15:28.311Z,19.98
2022-11-15T15:18:02.501Z,20.37
2022-11-15T15:20:50.313Z,20.92
2022-11-15T15:23:30.131Z,26.60
2022-11-15T15:26:18.302Z,23.58
2022-11-15T15:28:59.293Z,21.08
2022-11-15T15:31:53.308Z,21.88
2022-11-15T15:34:41.290Z,22.20
2022-11-15T15:37:15.392Z,23.95
2022-11-15T15:40:03.471Z,30.13
2022-11-15T15:42:37.378Z,28.88
2022-11-15T15:45:25.326Z,26.83
2022-11-15T15:47:59.373Z,26.80
2022-11-15T15:50:47.321Z,23.83
2022-11-15T15:53:28.373Z,25.55
2022-11-15T15:56:08.279Z,25.92
2022-11-15T15:58:49.409Z,29.15
2022-11-15T16:01:30.365Z,26.63
2022-11-15T16:04:11.417Z,29.27
2022-11-15T16:06:55.350Z,33.15
2022-11-15T16:10:01.495Z,38.33
2022-11-15T16:12:42.327Z,37.25
2022-11-15T16:15:30.306Z,36.58
2022-11-15T16:18:05.428Z,34.95
2022-11-15T16:20:57.304Z,31.67
2022-11-15T16:23:37.328Z,30.63
2022-11-15T16:26:38.396Z,31.05
2022-11-15T16:29:19.328Z,41.05
2022-11-15T16:32:00.417Z,38.67
2022-11-15T16:34:43.772Z,52.45
2022-11-15T16:37:30.397Z,62.78
2022-11-15T16:40:11.426Z,35.70
2022-11-15T16:42:52.517Z,27.92
2022-11-15T16:45:33.334Z,32.28
2022-11-15T16:48:14.413Z,49.78
2022-11-15T16:50:55.353Z,28.42
2022-11-15T16:53:36.387Z,31.60
2022-11-15T16:56:43.349Z,35.03
2022-11-15T17:02:04.348Z,35.28
2022-11-15T17:04:52.314Z,31.25
2022-11-15T17:07:26.347Z,32.30
2022-11-15T17:10:14.328Z,28.80
2022-11-15T17:12:48.335Z,26.70
2022-11-15T17:15:36.317Z,23.58
2022-11-15T17:18:15.419Z,21.40
2022-11-15T17:21:03.312Z,19.50
2022-11-15T17:23:43.337Z,23.70
2022-11-15T17:26:30.169Z,24.65
2022-11-15T17:29:19.322Z,25.48
2022-11-15T17:32:00.322Z,29.13
2022-11-15T17:34:54.323Z,28.83
2022-11-15T17:37:42.334Z,35.05
2022-11-15T17:40:16.407Z,33.60
2022-11-15T17:43:04.349Z,31.40
2022-11-15T17:45:45.323Z,29.35
2022-11-15T17:48:39.334Z,30.67
2022-11-15T17:51:27.340Z,35.42
2022-11-15T17:54:15.334Z,33.25
2022-11-15T17:56:56.345Z,33.67
2022-11-15T17:59:37.415Z,46.08
2022-11-15T18:02:17.367Z,41.88
2022-11-15T18:04:58.416Z,43.60
2022-11-15T18:07:38.390Z,41.08
2022-11-15T18:10:26.319Z,40.83
2022-11-15T18:13:06.318Z,53.60
2022-11-15T18:15:47.387Z,44.65
2022-11-15T18:18:27.340Z,41.58
2022-11-15T18:21:12.468Z,40.10
2022-11-15T18:23:53.436Z,40.03
2022-11-15T18:26:36.439Z,50.75
2022-11-15T18:29:17.333Z,46.75
2022-11-15T18:31:59.003Z,40.10
2022-11-15T18:34:40.359Z,41.72
2022-11-15T18:37:21.456Z,36.92
2022-11-15T18:40:01.364Z,38.65
2022-11-15T18:42:49.424Z,36.30
2022-11-15T18:45:24.293Z,34.72
2022-11-15T18:48:12.338Z,36.75
2022-11-15T18:50:54.056Z,39.42
2022-11-15T18:53:42.342Z,41.00
2022-11-15T18:56:23.762Z,37.13
2022-11-15T18:59:13.378Z,41.67
2022-11-15T19:01:48.477Z,44.80
2022-11-15T19:04:36.321Z,40.00
2022-11-15T19:07:10.475Z,40.47
2022-11-15T19:09:58.334Z,37.70
2022-11-15T19:12:32.323Z,36.30
2022-11-15T19:15:20.356Z,37.40
2022-11-15T19:18:01.346Z,34.78
2022-11-15T19:20:43.452Z,32.25
2022-11-15T19:23:23.349Z,35.47
2022-11-15T19:26:05.439Z,34.67
2022-11-15T19:28:46.357Z,35.08
2022-11-15T19:31:35.441Z,34.05
2022-11-15T19:34:09.800Z,34.60
2022-11-15T19:36:58.335Z,34.15
2022-11-15T19:39:52.342Z,31.52
2022-11-15T19:42:39.360Z,42.97
2022-11-15T19:45:13.434Z,35.53
2022-11-15T19:48:00.356Z,33.20
2022-11-15T19:50:41.351Z,39.53
2022-11-15T19:53:34.554Z,31.30
2022-11-15T19:56:18.428Z,35.13
2022-11-15T19:59:00.350Z,30.52
2022-11-15T20:01:42.724Z,29.00
2022-11-15T20:04:24.371Z,30.48
2022-11-15T20:07:05.456Z,27.50
2022-11-15T20:09:45.356Z,28.50
2022-11-15T20:12:33.347Z,30.85
2022-11-15T20:15:14.345Z,45.47
2022-11-15T20:18:02.388Z,41.17
2022-11-15T20:20:37.330Z,32.72
2022-11-15T20:23:25.368Z,34.05
2022-11-15T20:26:20.379Z,30.17
2022-11-15T20:29:15.345Z,28.13
2022-11-15T20:32:09.346Z,27.85
2022-11-15T20:34:56.378Z,26.13
2022-11-15T20:37:37.372Z,27.00
2022-11-15T20:40:31.346Z,26.20
2022-11-15T20:43:21.382Z,24.88
2022-11-15T20:46:02.398Z,28.95
2022-11-15T20:48:56.355Z,27.38
2022-11-15T20:51:44.367Z,26.52
2022-11-15T20:54:25.449Z,28.33
2022-11-15T20:57:12.375Z,40.78
2022-11-15T20:59:53.379Z,49.00
2022-11-15T21:02:47.367Z,47.70
2022-11-15T21:05:36.437Z,45.60
2022-11-15T21:08:10.439Z,42.58
2022-11-15T21:11:18.378Z,41.03
2022-11-15T21:13:52.520Z,37.63
2022-11-15T21:16:39.381Z,36.03
2022-11-15T21:19:13.961Z,32.03
2022-11-15T21:22:00.382Z,36.30
2022-11-15T21:24:41.364Z,36.60
2022-11-15T21:27:35.369Z,35.25
2022-11-15T21:30:29.365Z,35.50
2022-11-15T21:33:17.378Z,34.30
2022-11-15T21:35:51.531Z,38.15
2022-11-15T21:38:38.375Z,45.10
2022-11-15T21:41:12.453Z,48.25
2022-11-15T21:44:00.395Z,41.13
2022-11-15T21:46:35.213Z,42.13
2022-11-15T21:49:23.394Z,43.22
2022-11-15T21:52:04.381Z,34.58
2022-11-15T21:54:51.388Z,28.30
2022-11-15T21:57:32.368Z,30.73
2022-11-15T22:00:45.381Z,29.80
2022-11-15T22:03:39.380Z,30.50
2022-11-15T22:06:27.401Z,31.58
2022-11-15T22:09:01.595Z,33.63
2022-11-15T22:11:49.406Z,32.58
2022-11-15T22:14:23.485Z,32.13
2022-11-15T22:17:10.386Z,32.97
2022-11-15T22:19:52.617Z,34.45
2022-11-15T22:22:40.431Z,33.65
2022-11-15T22:25:14.518Z,32.25
2022-11-15T22:28:02.399Z,29.02
2022-11-15T22:30:36.550Z,29.30
2022-11-15T22:33:24.378Z,26.65
2022-11-15T22:35:58.542Z,27.02
2022-11-15T22:38:46.385Z,26.20
2022-11-15T22:41:20.655Z,27.48
2022-11-15T22:44:08.401Z,27.15
2022-11-15T22:46:42.518Z,24.52
2022-11-15T22:49:30.411Z,26.13
2022-11-15T22:52:11.536Z,25.67
2022-11-15T22:54:52.394Z,27.10
2022-11-15T22:57:40.412Z,25.85
2022-11-15T23:00:15.716Z,23.38
2022-11-15T23:03:03.421Z,24.38
2022-11-15T23:05:38.363Z,24.25
2022-11-15T23:08:26.430Z,25.25
2022-11-15T23:11:26.407Z,23.83
2022-11-15T23:14:14.420Z,22.23
2022-11-15T23:16:48.402Z,24.45
2022-11-15T23:19:36.419Z,23.65
2022-11-15T23:22:29.315Z,23.13
2022-11-15T23:25:17.404Z,24.75
2022-11-15T23:27:51.419Z,25.10
2022-11-15T23:30:57.416Z,25.38
2022-11-15T23:33:50.296Z,25.38
2022-11-15T23:36:34.427Z,23.83
2022-11-15T23:39:08.549Z,22.27
2022-11-15T23:41:49.418Z,24.65
2022-11-15T23:44:37.417Z,25.40
2022-11-15T23:47:11.432Z,25.42
2022-11-15T23:49:59.424Z,25.08
2022-11-15T23:52:33.540Z,25.08
2022-11-15T23:55:21.435Z,26.58
2022-11-15T23:57:55.653Z,24.50
